Time;durP1;ratioP1;P1;durP2;ratioP2;P2;SDS_P1;SDS_P2;PMS_P1;PMS_P2;Temp;Humidity;BMP_temperature;BMP_pressure;BME280_temperature;BME280_humidity;BME280_pressure;Samples;Min_cycle;Max_cycle;Signal;HPM_P1;HPM_P2
2022/12/15 00:39:16;;;;;;;13.80;12.80;;;18.50;43.40;;;;;;5013269;28;20485;-59
2022/12/15 00:41:43;;;;;;;12.67;12.00;;;18.50;43.40;;;;;;5013318;28;20442;-60
2022/12/15 00:44:10;;;;;;;12.87;12.17;;;18.50;43.40;;;;;;5013212;28;20809;-60
2022/12/15 01:22:21;;;;;;;12.53;11.67;;;18.20;43.10;;;;;;4993081;28;20511;-58
2022/12/15 01:24:49;;;;;;;13.60;12.73;;;18.20;43.00;;;;;;4997412;28;20542;-58
2022/12/15 01:27:16;;;;;;;12.57;11.90;;;18.10;42.90;;;;;;5012403;28;20536;-60
2022/12/15 01:29:43;;;;;;;12.40;11.77;;;18.10;42.90;;;;;;5012322;28;20473;-59
2022/12/15 01:32:10;;;;;;;13.40;12.40;;;18.10;42.90;;;;;;5012484;28;20816;-56
2022/12/15 01:34:36;;;;;;;11.97;11.27;;;18.10;42.90;;;;;;5012298;28;21501;-56
2022/12/15 01:37:03;;;;;;;13.03;12.30;;;18.10;42.80;;;;;;5012327;28;20442;-59
2022/12/15 01:40:43;;;;;;;11.83;11.33;;;18.10;42.80;;;;;;5012175;28;20462;-59
2022/12/15 01:42:18;;;;;;;12.57;11.97;;;18.10;42.90;;;;;;5012134;28;20830;-58
2022/12/15 01:44:47;;;;;;;12.50;11.80;;;18.10;42.90;;;;;;5012015;28;20446;-59
2022/12/15 01:47:14;;;;;;;12.67;11.90;;;18.10;42.90;;;;;;5011984;28;20452;-59
2022/12/15 01:49:46;;;;;;;13.77;12.87;;;18.10;43.00;;;;;;5043636;23;22790;-59
2022/12/15 01:52:16;;;;;;;12.63;11.93;;;18.10;43.00;;;;;;5047083;28;20870;-59
2022/12/15 01:54:49;;;;;;;12.30;11.60;;;18.10;43.10;;;;;;5034173;28;20445;-58
2022/12/15 01:57:22;;;;;;;12.90;12.20;;;18.10;43.10;;;;;;5031817;28;20939;-60
2022/12/15 01:59:52;;;;;;;13.10;12.40;;;18.10;43.10;;;;;;5031549;28;20457;-60
2022/12/15 02:02:22;;;;;;;13.60;12.80;;;18.10;43.10;;;;;;5031685;28;20452;-57
2022/12/15 02:04:51;;;;;;;12.33;11.73;;;18.10;43.10;;;;;;5014393;28;20450;-59
2022/12/15 02:07:19;;;;;;;12.20;11.60;;;18.10;43.10;;;;;;5011949;28;20875;-58
2022/12/15 02:09:48;;;;;;;13.23;12.40;;;18.10;43.00;;;;;;5011863;28;20548;-59
2022/12/15 02:12:28;;;;;;;13.03;12.23;;;18.10;43.00;;;;;;5012175;28;20442;-59
2022/12/15 02:15:09;;;;;;;13.13;12.23;;;18.10;43.00;;;;;;5027437;28;20801;-60
2022/12/15 02:17:44;;;;;;;12.27;11.60;;;18.10;42.90;;;;;;5031613;28;20543;-60
2022/12/15 02:20:46;;;;;;;12.93;11.97;;;18.10;42.90;;;;;;5031360;28;20451;-59
2022/12/15 02:23:53;;;;;;;12.20;11.50;;;18.00;42.80;;;;;;5030054;28;20520;-60
2022/12/15 02:26:48;;;;;;;12.80;12.10;;;18.00;42.80;;;;;;5031445;28;20528;-59
2022/12/15 02:29:45;;;;;;;12.27;11.57;;;18.00;42.80;;;;;;5031235;28;20465;-59
2022/12/15 02:32:16;;;;;;;12.63;12.00;;;17.90;42.70;;;;;;5031382;28;20567;-57
2022/12/15 02:34:47;;;;;;;12.60;11.90;;;17.90;42.70;;;;;;5015766;28;20973;-56
2022/12/15 02:37:18;;;;;;;12.33;11.63;;;17.90;42.70;;;;;;5011613;28;20446;-60
2022/12/15 02:39:45;;;;;;;12.87;12.17;;;17.90;42.70;;;;;;5011446;28;21064;-60
2022/12/15 02:42:12;;;;;;;13.17;12.37;;;17.90;42.70;;;;;;5011561;28;20814;-58
2022/12/15 02:44:44;;;;;;;13.77;12.90;;;17.80;42.70;;;;;;5026091;28;20476;-59
2022/12/15 02:47:21;;;;;;;13.50;12.50;;;17.80;42.70;;;;;;5031421;28;20810;-60
2022/12/15 02:50:00;;;;;;;12.90;12.20;;;17.80;42.70;;;;;;5025923;28;20472;-59
2022/12/15 02:52:46;;;;;;;14.03;13.23;;;17.80;42.70;;;;;;5031371;28;20520;-59
2022/12/15 02:55:20;;;;;;;13.50;12.67;;;17.80;42.60;;;;;;5031342;28;20519;-61
2022/12/15 02:57:53;;;;;;;13.97;13.07;;;17.70;42.50;;;;;;5031136;28;20878;-58
2022/12/15 03:00:21;;;;;;;12.90;12.10;;;17.80;42.60;;;;;;5018625;28;20438;-59
2022/12/15 03:02:52;;;;;;;12.70;11.97;;;17.80;42.60;;;;;;5011415;28;20477;-59
2022/12/15 03:05:21;;;;;;;11.70;11.10;;;17.80;42.60;;;;;;5011459;28;20442;-59
2022/12/15 03:07:50;;;;;;;12.40;11.80;;;17.80;42.70;;;;;;5011355;28;20824;-60
2022/12/15 03:10:19;;;;;;;11.47;10.67;;;17.80;42.70;;;;;;5022241;28;20485;-60
2022/12/15 03:12:46;;;;;;;12.63;12.00;;;17.80;42.80;;;;;;5031082;28;20457;-60
2022/12/15 03:15:13;;;;;;;12.47;11.77;;;17.80;42.80;;;;;;5022607;28;20449;-58
2022/12/15 03:17:40;;;;;;;13.00;12.20;;;17.80;42.80;;;;;;5011418;28;20450;-60
2022/12/15 03:20:10;;;;;;;12.87;12.17;;;17.80;42.80;;;;;;5020586;28;20457;-60
2022/12/15 03:22:37;;;;;;;12.97;12.20;;;17.80;42.80;;;;;;5031019;28;20858;-60
2022/12/15 03:25:05;;;;;;;12.70;11.90;;;17.80;42.80;;;;;;5030956;28;20515;-60
2022/12/15 03:27:32;;;;;;;13.10;12.37;;;17.70;42.70;;;;;;5034299;28;20527;-59
2022/12/15 03:29:58;;;;;;;13.03;12.33;;;17.80;42.70;;;;;;5029627;28;20556;-57
2022/12/15 03:32:25;;;;;;;13.27;12.33;;;17.80;42.70;;;;;;5021906;28;20450;-57
2022/12/15 03:34:52;;;;;;;11.83;11.20;;;17.80;42.60;;;;;;5014651;28;20537;-58
2022/12/15 03:37:20;;;;;;;11.77;11.17;;;17.70;42.50;;;;;;5014721;28;20818;-59
2022/12/15 03:39:47;;;;;;;12.10;11.40;;;17.80;42.60;;;;;;5020728;28;20468;-57
2022/12/15 03:42:46;;;;;;;12.20;11.50;;;17.80;42.60;;;;;;5034278;28;20445;-61
2022/12/15 03:45:01;;;;;;;12.20;11.43;;;17.80;42.50;;;;;;5034235;28;20441;-59
2022/12/15 03:47:27;;;;;;;13.03;12.23;;;17.70;42.40;;;;;;5034120;28;21006;-60
2022/12/15 03:49:54;;;;;;;12.80;12.00;;;17.70;42.40;;;;;;5028670;28;20474;-60
2022/12/15 03:52:22;;;;;;;13.00;12.20;;;17.70;42.40;;;;;;5034100;28;20806;-60
2022/12/15 03:54:49;;;;;;;13.43;12.47;;;17.70;42.30;;;;;;5033939;28;20445;-58
2022/12/15 03:57:16;;;;;;;12.73;11.97;;;17.70;42.40;;;;;;5034257;28;20810;-61
2022/12/15 03:59:43;;;;;;;13.97;13.17;;;17.70;42.30;;;;;;5027714;28;20473;-60
2022/12/15 04:02:10;;;;;;;14.10;13.33;;;17.70;42.30;;;;;;5014213;28;20441;-59
2022/12/15 04:04:37;;;;;;;13.20;12.30;;;17.60;42.30;;;;;;5014220;28;21145;-58
2022/12/15 04:07:04;;;;;;;12.90;12.17;;;17.60;42.30;;;;;;5014159;28;20513;-59
2022/12/15 04:09:32;;;;;;;12.47;11.60;;;17.60;42.30;;;;;;5017191;28;20497;-56
2022/12/15 04:12:02;;;;;;;12.80;11.87;;;17.60;42.30;;;;;;5033775;28;20480;-59
2022/12/15 04:14:28;;;;;;;12.60;11.83;;;17.60;42.30;;;;;;5033621;28;20956;-60
2022/12/15 04:16:55;;;;;;;12.20;11.50;;;17.60;42.30;;;;;;5033742;28;20441;-60
2022/12/15 04:22:06;;;;;;;12.33;11.53;;;17.60;42.30;;;;;;5033640;28;20495;-58
2022/12/15 05:33:14;;;;;;;13.77;12.77;;;17.50;42.30;;;;;;5012888;28;20437;-60
2022/12/15 05:35:40;;;;;;;13.70;12.90;;;17.40;42.20;;;;;;5012445;28;20446;-60
2022/12/15 05:38:07;;;;;;;14.30;13.30;;;17.40;42.20;;;;;;5012426;28;20470;-59
2022/12/15 05:40:34;;;;;;;13.07;12.27;;;17.40;42.20;;;;;;5016959;28;20445;-58
2022/12/15 05:43:01;;;;;;;13.27;12.37;;;17.40;42.30;;;;;;5032012;28;20535;-60
2022/12/15 05:45:29;;;;;;;15.27;13.83;;;17.40;42.30;;;;;;5032223;28;20968;-58
2022/12/15 05:47:56;;;;;;;14.10;13.03;;;17.40;42.30;;;;;;5031531;28;20808;-60
2022/12/15 05:50:23;;;;;;;13.97;12.97;;;17.40;42.20;;;;;;5026666;28;20445;-61
2022/12/15 05:52:50;;;;;;;14.03;12.83;;;17.40;42.20;;;;;;5031789;28;20459;-61
2022/12/15 05:55:17;;;;;;;15.17;14.00;;;17.40;42.20;;;;;;5032223;28;20535;-60
2022/12/15 05:57:44;;;;;;;14.37;13.17;;;17.50;42.20;;;;;;5031668;28;20544;-59
2022/12/15 06:00:12;;;;;;;14.93;13.77;;;17.50;42.20;;;;;;5025207;28;20452;-59
2022/12/15 06:02:40;;;;;;;15.20;14.20;;;17.50;42.10;;;;;;5012266;28;20525;-58
2022/12/15 06:05:08;;;;;;;15.53;14.40;;;17.50;42.10;;;;;;5012256;28;20508;-58
2022/12/15 06:07:36;;;;;;;14.33;13.33;;;17.50;42.10;;;;;;5012369;28;20873;-60
2022/12/15 06:10:03;;;;;;;15.90;14.50;;;17.50;42.10;;;;;;5016574;28;20469;-61
2022/12/15 06:12:30;;;;;;;15.60;14.50;;;17.50;42.00;;;;;;5032479;28;20488;-60
2022/12/15 06:14:57;;;;;;;14.03;13.13;;;17.60;42.10;;;;;;5040876;28;20823;-62
2022/12/15 06:17:24;;;;;;;13.87;12.97;;;17.50;42.00;;;;;;5046369;28;20448;-61
2022/12/15 06:19:52;;;;;;;15.63;14.63;;;17.60;42.00;;;;;;5044107;28;20858;-61
2022/12/15 06:22:19;;;;;;;14.67;13.67;;;17.60;42.00;;;;;;5026953;28;20449;-61
2022/12/15 06:24:46;;;;;;;15.23;13.93;;;17.60;41.90;;;;;;5026952;28;20447;-62
2022/12/15 06:27:13;;;;;;;16.07;14.80;;;17.60;41.90;;;;;;5026959;28;20476;-61
2022/12/15 06:29:40;;;;;;;15.40;13.97;;;17.60;41.90;;;;;;5021687;28;20545;-59
2022/12/15 06:32:06;;;;;;;14.10;13.00;;;17.60;41.90;;;;;;5015072;28;20503;-58
2022/12/15 06:34:33;;;;;;;15.70;14.47;;;17.60;41.90;;;;;;5012079;28;20765;-56
2022/12/15 06:37:01;;;;;;;15.30;14.20;;;17.60;42.50;;;;;;5011784;28;20450;-56
2022/12/15 06:39:28;;;;;;;16.73;14.93;;;17.60;43.60;;;;;;5011723;28;20462;-59
2022/12/15 06:41:55;;;;;;;16.37;14.77;;;17.60;45.00;;;;;;5012183;28;20524;-59
2022/12/15 06:44:22;;;;;;;17.70;15.93;;;17.60;46.60;;;;;;5011732;28;20453;-59
2022/12/15 06:46:49;;;;;;;15.17;13.80;;;17.70;47.90;;;;;;5013359;28;20452;-54
2022/12/15 06:49:15;;;;;;;23.40;15.80;;;17.60;48.60;;;;;;5010880;28;20473;-53
2022/12/15 06:51:43;;;;;;;17.33;14.73;;;17.60;49.30;;;;;;5010809;28;20496;-56
2022/12/15 06:54:12;;;;;;;17.70;15.90;;;17.50;48.70;;;;;;5011587;28;20457;-57
2022/12/15 06:56:39;;;;;;;17.67;16.00;;;17.50;48.10;;;;;;5011562;28;21033;-55
2022/12/15 06:59:07;;;;;;;22.80;17.33;;;17.50;47.60;;;;;;5011154;28;20468;-54
2022/12/15 07:01:34;;;;;;;16.80;15.40;;;17.50;47.20;;;;;;5015140;28;20529;-54
2022/12/15 07:04:04;;;;;;;17.03;15.30;;;17.50;46.80;;;;;;5015031;28;21043;-53
2022/12/15 07:06:35;;;;;;;19.47;17.67;;;17.40;46.50;;;;;;5015194;28;20457;-55
2022/12/15 07:09:02;;;;;;;16.27;14.87;;;17.40;46.20;;;;;;5015030;28;20470;-55
2022/12/15 07:11:30;;;;;;;16.40;15.10;;;17.40;46.00;;;;;;5015029;28;20584;-55
2022/12/15 07:13:57;;;;;;;19.40;17.20;;;17.40;45.70;;;;;;5015035;28;20445;-56
2022/12/15 07:16:24;;;;;;;17.63;16.20;;;17.40;45.60;;;;;;5015093;28;20528;-55
2022/12/15 07:18:51;;;;;;;15.60;14.40;;;17.30;45.30;;;;;;5014889;28;20473;-56
2022/12/15 07:21:18;;;;;;;15.90;14.50;;;17.40;45.20;;;;;;5014944;28;20525;-55
2022/12/15 07:23:45;;;;;;;14.07;13.07;;;17.40;45.10;;;;;;5014986;28;20556;-56
2022/12/15 07:26:12;;;;;;;15.77;14.23;;;17.40;45.00;;;;;;5015187;28;20937;-56
2022/12/15 07:28:40;;;;;;;15.40;14.40;;;17.50;44.90;;;;;;5014936;28;20466;-56
2022/12/15 07:31:09;;;;;;;16.20;14.70;;;17.50;44.70;;;;;;5014781;28;20488;-57
2022/12/15 07:33:37;;;;;;;15.17;13.80;;;17.50;44.60;;;;;;5014869;28;20545;-57
2022/12/15 07:36:07;;;;;;;19.00;17.70;;;17.60;44.50;;;;;;5014707;28;20454;-58
2022/12/15 07:38:34;;;;;;;16.73;15.27;;;17.60;44.30;;;;;;5014516;28;20469;-57
2022/12/15 07:41:02;;;;;;;18.17;16.87;;;17.60;44.10;;;;;;5014524;28;20456;-57
2022/12/15 07:43:29;;;;;;;14.77;13.23;;;17.60;43.90;;;;;;5014550;28;20507;-56
2022/12/15 07:45:58;;;;;;;15.13;13.77;;;17.70;43.80;;;;;;5014457;28;20450;-58
2022/12/15 07:48:26;;;;;;;18.17;16.93;;;17.70;43.70;;;;;;5014953;28;20489;-51
2022/12/15 07:50:56;;;;;;;15.60;14.37;;;17.70;43.60;;;;;;5014098;28;20481;-52
2022/12/15 07:53:24;;;;;;;13.77;12.47;;;17.70;43.50;;;;;;5014446;28;20439;-52
2022/12/15 07:55:55;;;;;;;14.67;13.53;;;17.70;43.40;;;;;;5014291;28;20859;-52
2022/12/15 07:58:21;;;;;;;14.30;13.30;;;17.60;43.20;;;;;;5014279;28;20531;-51
2022/12/15 08:00:49;;;;;;;14.57;13.50;;;17.60;43.10;;;;;;5013994;28;20529;-51
2022/12/15 08:03:17;;;;;;;14.27;13.23;;;17.60;43.10;;;;;;5014431;28;20433;-51
2022/12/15 08:05:44;;;;;;;13.40;12.50;;;17.60;43.00;;;;;;5014018;28;20446;-56
2022/12/15 08:08:11;;;;;;;13.57;12.50;;;17.60;43.00;;;;;;5014032;28;20900;-51
2022/12/15 08:10:39;;;;;;;14.73;13.30;;;17.60;42.90;;;;;;5013745;28;20438;-52
2022/12/15 08:13:06;;;;;;;13.60;12.80;;;17.50;42.80;;;;;;5013277;28;20485;-50
2022/12/15 08:15:35;;;;;;;13.93;12.97;;;17.50;42.70;;;;;;5013924;28;20441;-51
2022/12/15 08:18:02;;;;;;;13.83;12.77;;;17.50;42.70;;;;;;5013736;28;20462;-56
2022/12/15 08:20:30;;;;;;;13.80;12.97;;;17.50;42.60;;;;;;5013680;28;20541;-50
2022/12/15 08:22:57;;;;;;;14.40;13.50;;;17.50;42.60;;;;;;5013756;28;20874;-51
2022/12/15 08:25:27;;;;;;;16.60;15.50;;;17.40;42.50;;;;;;5013740;28;21028;-50
2022/12/15 08:27:54;;;;;;;14.00;13.10;;;17.40;42.50;;;;;;5013556;28;20450;-51
2022/12/15 08:30:21;;;;;;;13.57;12.63;;;17.40;43.00;;;;;;5013487;28;20533;-55
2022/12/15 08:32:48;;;;;;;14.23;13.17;;;17.40;42.40;;;;;;5013671;28;20573;-51
2022/12/15 08:35:15;;;;;;;13.03;12.20;;;17.40;42.40;;;;;;5013398;28;20949;-54
2022/12/15 08:37:43;;;;;;;12.93;12.13;;;17.30;42.40;;;;;;5013450;28;20533;-50
2022/12/15 08:40:12;;;;;;;12.33;11.63;;;17.30;42.30;;;;;;5013238;28;20450;-50
2022/12/15 08:42:39;;;;;;;14.17;13.43;;;17.30;42.30;;;;;;5013688;28;21009;-51
2022/12/15 08:45:07;;;;;;;14.40;13.50;;;17.30;42.30;;;;;;5013342;28;20970;-50
2022/12/15 08:47:34;;;;;;;14.10;12.80;;;17.30;42.30;;;;;;5013242;28;20876;-50
2022/12/15 08:50:00;;;;;;;13.37;12.53;;;17.30;42.30;;;;;;5013088;28;20565;-50
2022/12/15 08:52:27;;;;;;;13.73;12.53;;;17.20;42.20;;;;;;5013068;28;20481;-54
2022/12/15 08:54:55;;;;;;;13.03;12.23;;;17.30;42.30;;;;;;5013124;28;20532;-50
2022/12/15 08:57:22;;;;;;;14.33;13.33;;;17.30;42.30;;;;;;5013115;28;20815;-50
2022/12/15 08:59:49;;;;;;;13.67;12.77;;;17.30;42.30;;;;;;5012785;28;20465;-50
2022/12/15 09:02:16;;;;;;;13.70;12.80;;;17.40;42.30;;;;;;5013000;28;20442;-51
2022/12/15 09:04:44;;;;;;;12.87;12.03;;;17.40;42.20;;;;;;5012983;28;20450;-52
2022/12/15 09:07:11;;;;;;;12.50;11.77;;;17.50;42.20;;;;;;5012945;28;20461;-51
2022/12/15 09:09:38;;;;;;;13.43;12.53;;;17.50;42.20;;;;;;5012642;28;20836;-55
2022/12/15 09:12:06;;;;;;;12.97;12.27;;;17.50;42.10;;;;;;5012678;28;20860;-51
2022/12/15 09:14:33;;;;;;;12.27;11.47;;;17.60;42.10;;;;;;5012839;28;21009;-52
2022/12/15 09:17:00;;;;;;;14.07;13.10;;;17.60;42.00;;;;;;5012871;28;20480;-54
2022/12/15 09:19:27;;;;;;;13.40;12.60;;;17.60;41.90;;;;;;5012612;28;20524;-51
2022/12/15 09:21:54;;;;;;;13.27;12.37;;;17.60;41.80;;;;;;5012693;28;20449;-55
2022/12/15 09:24:23;;;;;;;12.80;12.00;;;17.70;41.90;;;;;;5011841;28;20815;-51
2022/12/15 09:26:50;;;;;;;13.33;12.47;;;17.70;41.80;;;;;;5012721;28;20453;-51
2022/12/15 09:29:18;;;;;;;13.77;13.07;;;17.70;41.70;;;;;;5012332;28;20536;-51
2022/12/15 09:31:45;;;;;;;13.50;12.70;;;17.70;41.70;;;;;;5012573;28;20493;-54
2022/12/15 09:34:14;;;;;;;13.87;12.97;;;17.70;41.60;;;;;;5012544;28;20888;-52
2022/12/15 09:36:41;;;;;;;14.40;13.60;;;17.60;41.50;;;;;;5012460;28;20456;-52
2022/12/15 09:39:10;;;;;;;13.93;13.07;;;17.60;41.50;;;;;;5012232;28;20961;-53
2022/12/15 09:41:38;;;;;;;12.40;11.70;;;17.60;41.50;;;;;;5012372;28;20529;-52
2022/12/15 09:44:11;;;;;;;13.10;12.30;;;17.60;41.40;;;;;;5012196;28;20529;-52
2022/12/15 09:47:01;;;;;;;13.13;12.27;;;17.60;41.40;;;;;;5012425;28;20537;-51
2022/12/15 09:49:44;;;;;;;14.10;13.20;;;17.60;41.50;;;;;;5011967;28;20505;-52
2022/12/15 09:52:13;;;;;;;12.90;12.17;;;17.60;41.50;;;;;;5012116;28;20485;-55
2022/12/15 09:54:41;;;;;;;12.63;11.83;;;17.50;41.30;;;;;;5012238;28;20536;-52
2022/12/15 09:57:15;;;;;;;12.93;12.10;;;17.50;41.40;;;;;;5012187;28;20450;-53
2022/12/15 10:00:00;;;;;;;12.90;12.10;;;17.50;41.40;;;;;;5011949;28;20475;-51
2022/12/15 10:02:59;;;;;;;14.13;13.30;;;17.40;41.30;;;;;;5011953;28;20525;-56
2022/12/15 10:05:38;;;;;;;12.10;11.50;;;17.40;41.30;;;;;;5011959;28;20533;-54
2022/12/15 10:08:05;;;;;;;13.40;12.70;;;17.40;41.40;;;;;;5012136;28;20520;-51
2022/12/15 10:10:38;;;;;;;12.83;12.03;;;17.40;41.40;;;;;;5011791;28;20524;-51
2022/12/15 10:13:11;;;;;;;13.17;12.37;;;17.40;41.40;;;;;;5011865;28;20484;-56
2022/12/15 10:15:45;;;;;;;13.00;12.20;;;17.40;41.40;;;;;;5011943;28;20533;-55
2022/12/15 10:18:21;;;;;;;12.43;11.60;;;17.30;41.40;;;;;;5011677;28;20476;-52
2022/12/15 10:20:47;;;;;;;12.73;12.03;;;17.30;41.40;;;;;;5011619;28;20502;-57
2022/12/15 10:23:17;;;;;;;13.27;12.47;;;17.30;41.40;;;;;;5020312;28;20484;-52
2022/12/15 10:25:47;;;;;;;13.10;12.33;;;17.30;41.40;;;;;;5031547;28;21058;-59
2022/12/15 10:28:42;;;;;;;13.47;12.67;;;17.30;41.60;;;;;;5031337;28;20473;-54
2022/12/15 10:31:23;;;;;;;13.20;12.60;;;17.30;41.80;;;;;;5031357;28;20453;-54
2022/12/15 10:33:57;;;;;;;13.10;12.30;;;17.20;41.90;;;;;;5031526;28;20480;-56
2022/12/15 10:36:24;;;;;;;13.07;12.23;;;17.20;41.90;;;;;;5035179;28;20444;-56
2022/12/15 10:38:51;;;;;;;12.27;11.67;;;17.20;41.90;;;;;;5035013;28;20465;-53
2022/12/15 10:41:20;;;;;;;12.97;12.27;;;17.20;41.90;;;;;;5035287;28;20444;-56
2022/12/15 10:43:48;;;;;;;12.97;12.17;;;17.30;42.00;;;;;;5035301;28;20441;-54
2022/12/15 10:46:18;;;;;;;12.90;12.20;;;17.40;42.00;;;;;;5035303;28;20948;-51
2022/12/15 10:48:47;;;;;;;13.63;12.83;;;17.40;42.00;;;;;;5035095;28;20489;-54
2022/12/15 10:51:26;;;;;;;12.83;11.93;;;17.50;42.00;;;;;;5035103;28;20476;-51
2022/12/15 10:54:03;;;;;;;12.90;12.20;;;17.50;42.00;;;;;;5035236;28;20519;-51
2022/12/15 10:56:32;;;;;;;12.37;11.60;;;17.50;41.90;;;;;;5035204;28;20878;-50
2022/12/15 10:59:01;;;;;;;13.47;12.67;;;17.60;41.90;;;;;;5034953;28;20472;-55
2022/12/15 11:01:30;;;;;;;12.93;12.23;;;17.60;41.80;;;;;;5035222;28;20453;-51
2022/12/15 11:03:57;;;;;;;13.47;12.73;;;17.60;41.70;;;;;;5035071;28;20531;-51
2022/12/15 11:06:28;;;;;;;13.33;12.60;;;17.70;41.70;;;;;;5034896;28;20535;-52
2022/12/15 11:09:06;;;;;;;12.47;11.87;;;17.70;41.70;;;;;;5034763;28;20560;-51
2022/12/15 11:14:22;;;;;;;12.17;11.67;;;17.70;41.50;;;;;;5034898;28;20783;-52
2022/12/15 11:16:53;;;;;;;13.07;12.37;;;17.70;41.40;;;;;;5034790;28;20492;-54
2022/12/15 11:19:38;;;;;;;12.97;12.37;;;17.70;41.40;;;;;;5034575;28;20472;-52
2022/12/15 11:22:12;;;;;;;13.93;13.13;;;17.70;41.80;;;;;;5034896;28;20529;-52
2022/12/15 11:24:44;;;;;;;12.90;12.10;;;17.70;41.30;;;;;;5034636;28;20444;-54
2022/12/15 11:27:23;;;;;;;12.50;11.80;;;17.70;41.30;;;;;;5034609;28;20451;-55
2022/12/15 11:29:59;;;;;;;13.77;12.97;;;17.70;41.20;;;;;;5034302;28;20989;-54
2022/12/15 11:32:28;;;;;;;14.77;13.90;;;17.70;41.10;;;;;;5034372;28;20507;-56
2022/12/15 11:34:56;;;;;;;13.00;12.30;;;17.70;41.10;;;;;;5034474;28;20441;-51
2022/12/15 11:37:36;;;;;;;12.57;11.97;;;17.70;41.10;;;;;;5034506;28;20564;-50
2022/12/15 11:40:35;;;;;;;12.47;11.87;;;17.70;41.10;;;;;;5034251;28;21066;-51
2022/12/15 11:43:30;;;;;;;13.53;12.87;;;17.70;41.10;;;;;;5031369;28;20457;-56
2022/12/15 11:46:13;;;;;;;12.97;12.27;;;17.70;41.10;;;;;;5033711;28;20532;-53
2022/12/15 11:48:46;;;;;;;13.57;12.90;;;17.70;41.00;;;;;;5034239;28;21043;-51
2022/12/15 11:51:17;;;;;;;13.13;12.40;;;17.60;41.00;;;;;;5034150;28;20932;-56
2022/12/15 11:54:10;;;;;;;12.83;12.13;;;17.60;41.00;;;;;;5034023;28;20962;-59
2022/12/15 11:56:43;;;;;;;13.40;12.70;;;17.60;41.00;;;;;;5034117;28;20548;-52
2022/12/15 11:59:38;;;;;;;13.63;12.83;;;17.60;41.00;;;;;;5033839;28;20556;-56
2022/12/15 12:02:25;;;;;;;14.30;13.40;;;17.50;41.00;;;;;;5033873;28;20931;-53
2022/12/15 12:05:07;;;;;;;14.70;13.80;;;17.50;41.00;;;;;;5033882;28;20536;-52
2022/12/15 12:07:41;;;;;;;13.33;12.63;;;17.50;40.90;;;;;;5034104;28;20929;-52
2022/12/15 12:10:23;;;;;;;14.00;13.10;;;17.50;40.90;;;;;;5033577;28;20444;-51
2022/12/15 12:12:56;;;;;;;14.50;13.57;;;17.40;40.90;;;;;;5033636;28;20920;-57
2022/12/15 12:15:32;;;;;;;14.33;13.43;;;17.40;41.40;;;;;;5033718;28;20533;-52
2022/12/15 12:18:07;;;;;;;13.00;12.40;;;17.40;40.80;;;;;;5033859;28;20536;-52
2022/12/15 12:20:43;;;;;;;13.50;12.60;;;17.40;40.90;;;;;;5033435;28;21021;-52
2022/12/15 12:23:15;;;;;;;13.70;13.00;;;17.40;40.80;;;;;;5033629;28;20499;-51
2022/12/15 12:25:55;;;;;;;14.53;13.53;;;17.40;40.90;;;;;;5033603;28;20527;-53
2022/12/15 12:28:25;;;;;;;14.57;13.87;;;17.40;40.80;;;;;;5033333;28;21047;-51
2022/12/15 12:30:54;;;;;;;13.37;12.67;;;17.40;40.90;;;;;;5033275;28;20456;-55
2022/12/15 12:33:36;;;;;;;12.80;12.10;;;17.40;41.00;;;;;;5033386;28;20575;-51
2022/12/15 12:36:09;;;;;;;13.50;12.73;;;17.50;41.10;;;;;;5033328;28;20602;-54
2022/12/15 12:38:40;;;;;;;12.87;12.27;;;17.50;41.00;;;;;;5033201;28;20468;-51
2022/12/15 12:41:12;;;;;;;14.37;13.37;;;17.60;41.10;;;;;;5033051;28;20481;-53
2022/12/15 12:43:42;;;;;;;13.43;12.73;;;17.60;41.10;;;;;;5033227;28;20806;-53
2022/12/15 12:46:15;;;;;;;14.40;13.70;;;17.70;41.10;;;;;;5033158;28;21209;-50
2022/12/15 12:48:48;;;;;;;14.00;13.10;;;17.70;41.10;;;;;;5032971;28;20469;-54
2022/12/15 12:51:24;;;;;;;12.30;11.70;;;17.70;41.00;;;;;;5032948;28;20536;-56
2022/12/15 12:53:52;;;;;;;12.67;12.00;;;17.80;41.10;;;;;;5032919;28;20485;-55
2022/12/15 12:56:39;;;;;;;14.27;13.47;;;17.80;41.00;;;;;;5033171;28;20528;-51
2022/12/15 12:59:35;;;;;;;13.70;13.00;;;17.80;41.10;;;;;;5032444;28;20552;-56
2022/12/15 13:02:48;;;;;;;13.57;12.67;;;17.80;41.00;;;;;;5032924;28;20446;-57
2022/12/15 13:05:32;;;;;;;13.30;12.50;;;17.80;41.00;;;;;;5032788;28;21035;-53
2022/12/15 13:08:26;;;;;;;13.10;12.50;;;17.80;41.00;;;;;;5032705;28;20528;-52
2022/12/15 13:10:54;;;;;;;13.73;12.83;;;17.80;40.90;;;;;;5032498;28;20531;-53
2022/12/15 13:13:45;;;;;;;13.33;12.70;;;17.80;40.90;;;;;;5032610;28;20485;-55
2022/12/15 13:16:20;;;;;;;14.10;13.30;;;17.80;40.80;;;;;;5032594;28;20455;-55
2022/12/15 13:19:00;;;;;;;13.70;12.90;;;17.80;40.80;;;;;;5032308;28;20551;-52
2022/12/15 13:21:53;;;;;;;13.33;12.73;;;17.90;40.80;;;;;;5032262;28;20962;-52
2022/12/15 13:24:30;;;;;;;14.93;14.13;;;17.90;40.70;;;;;;5032373;28;20442;-55
2022/12/15 13:27:13;;;;;;;14.10;13.43;;;17.90;40.70;;;;;;5032369;28;20440;-51
2022/12/15 13:29:57;;;;;;;13.83;13.13;;;17.90;40.70;;;;;;5031920;28;20469;-52
2022/12/15 13:32:31;;;;;;;13.73;12.93;;;17.90;40.70;;;;;;5032375;28;20456;-53
2022/12/15 13:35:15;;;;;;;13.93;13.07;;;17.90;40.70;;;;;;5032236;28;20448;-51
2022/12/15 13:37:47;;;;;;;13.50;12.80;;;17.90;40.60;;;;;;5032150;28;20515;-56
2022/12/15 13:40:32;;;;;;;13.93;13.23;;;17.80;40.60;;;;;;5031921;28;20788;-51
2022/12/15 13:43:06;;;;;;;13.60;12.90;;;17.80;40.50;;;;;;5032121;28;20445;-53
2022/12/15 13:45:54;;;;;;;14.33;13.63;;;17.80;40.60;;;;;;5032047;28;20988;-52
2022/12/15 13:48:38;;;;;;;13.87;13.17;;;17.80;40.50;;;;;;5032494;28;20461;-56
2022/12/15 13:51:26;;;;;;;13.70;12.90;;;17.80;40.50;;;;;;5032938;28;20452;-59
2022/12/15 13:53:58;;;;;;;15.00;14.10;;;17.70;40.50;;;;;;5032967;28;20481;-59
2022/12/15 13:56:41;;;;;;;12.97;12.47;;;17.70;40.50;;;;;;5032959;28;20532;-59
2022/12/15 13:59:16;;;;;;;13.60;12.90;;;17.70;40.50;;;;;;5033032;28;20555;-59
2022/12/15 14:01:51;;;;;;;13.40;12.80;;;17.70;40.50;;;;;;5032562;28;20813;-59
2022/12/15 14:04:19;;;;;;;13.77;12.97;;;17.70;40.50;;;;;;5032908;28;20527;-59
2022/12/15 14:06:48;;;;;;;13.40;12.70;;;17.70;40.50;;;;;;5033226;28;20862;-60
2022/12/15 14:09:19;;;;;;;13.10;12.40;;;17.70;40.50;;;;;;5032887;28;20697;-60
2022/12/15 14:11:48;;;;;;;13.47;12.73;;;17.60;40.40;;;;;;5032581;28;20999;-60
2022/12/15 14:14:24;;;;;;;14.03;13.13;;;17.60;40.40;;;;;;5032486;28;20517;-58
2022/12/15 14:17:00;;;;;;;13.70;12.90;;;17.60;40.40;;;;;;5032696;28;21023;-59
2022/12/15 14:19:37;;;;;;;14.37;13.50;;;17.60;40.40;;;;;;5032490;28;20544;-57
2022/12/15 14:22:16;;;;;;;14.33;13.70;;;17.50;40.30;;;;;;5032651;28;20448;-57
2022/12/15 14:24:45;;;;;;;13.50;12.90;;;17.60;40.40;;;;;;5032927;28;20901;-59
2022/12/15 14:27:22;;;;;;;13.47;12.77;;;17.60;40.50;;;;;;5032905;28;20527;-56
2022/12/15 14:29:49;;;;;;;13.60;12.90;;;17.60;40.60;;;;;;5033803;28;20475;-58
2022/12/15 14:32:18;;;;;;;12.43;11.83;;;17.60;40.60;;;;;;5033418;28;20449;-59
2022/12/15 14:34:45;;;;;;;13.00;12.30;;;17.60;40.60;;;;;;5033610;28;21012;-58
2022/12/15 14:37:17;;;;;;;13.33;12.63;;;17.70;40.70;;;;;;5033642;28;20881;-58
2022/12/15 14:39:47;;;;;;;12.27;11.73;;;17.70;40.70;;;;;;5033862;28;20473;-58
2022/12/15 14:42:17;;;;;;;12.63;12.13;;;17.80;40.70;;;;;;5034230;28;21110;-59
2022/12/15 14:44:46;;;;;;;13.70;13.00;;;17.80;40.70;;;;;;5033432;28;21012;-57
2022/12/15 14:47:22;;;;;;;12.47;11.97;;;17.80;40.70;;;;;;5033185;28;20895;-58
2022/12/15 14:49:50;;;;;;;12.10;11.60;;;17.90;40.70;;;;;;5032915;28;20868;-59
2022/12/15 14:52:27;;;;;;;12.23;11.60;;;17.80;40.60;;;;;;5033925;28;20535;-59
2022/12/15 14:54:56;;;;;;;12.27;11.67;;;17.90;40.70;;;;;;5033526;28;20563;-60
2022/12/15 14:57:25;;;;;;;12.73;12.10;;;17.90;40.60;;;;;;5033914;28;20460;-58
2022/12/15 14:59:52;;;;;;;13.80;13.10;;;17.90;40.60;;;;;;5034086;28;20901;-60
2022/12/15 15:02:23;;;;;;;13.63;12.93;;;17.90;40.50;;;;;;5033683;28;20445;-60
2022/12/15 15:05:01;;;;;;;12.83;12.20;;;17.90;40.50;;;;;;5034643;28;20955;-59
2022/12/15 15:07:29;;;;;;;11.33;10.90;;;17.90;40.50;;;;;;5033765;28;20525;-59
2022/12/15 15:09:56;;;;;;;11.97;11.47;;;17.90;40.50;;;;;;5033572;28;20555;-58
2022/12/15 15:12:26;;;;;;;14.00;13.10;;;17.90;40.40;;;;;;5033139;28;20528;-58
2022/12/15 15:14:59;;;;;;;13.40;12.80;;;17.90;40.40;;;;;;5033278;28;20607;-57
2022/12/15 15:17:34;;;;;;;13.70;13.10;;;17.90;40.40;;;;;;5033119;28;20544;-60
2022/12/15 15:20:04;;;;;;;12.83;12.23;;;17.90;40.30;;;;;;5032641;28;20620;-57